Time;durP1;ratioP1;P1;durP2;ratioP2;P2;SDS_P1;SDS_P2;PMS_P1;PMS_P2;Temp;Humidity;BMP_temperature;BMP_pressure;BME280_temperature;BME280_humidity;BME280_pressure;Samples;Min_cycle;Max_cycle;Signal;HPM_P1;HPM_P2
2022/12/19 00:00:20;;;;;;;19.70;7.40;;;;;;;-2.68;79.79;102129.16;5002393;28;20406;-70
2022/12/19 00:02:47;;;;;;;15.25;6.80;;;;;;;-2.82;80.65;102128.81;4989522;28;20395;-70
2022/12/19 00:05:15;;;;;;;18.75;9.07;;;;;;;-2.89;81.36;102151.72;5004614;28;20057;-70
2022/12/19 00:07:41;;;;;;;23.92;11.80;;;;;;;-2.95;80.90;102137.91;5002967;28;20050;-70
2022/12/19 00:10:08;;;;;;;12.05;6.07;;;;;;;-3.18;82.69;102121.03;4991844;28;20498;-70
2022/12/19 00:12:35;;;;;;;21.77;9.05;;;;;;;-2.80;82.27;102119.44;4989895;28;20057;-70
2022/12/19 00:15:01;;;;;;;27.60;11.23;;;;;;;-2.71;81.14;102111.13;4986279;28;20041;-70
2022/12/19 00:17:28;;;;;;;17.17;7.15;;;;;;;-2.74;81.10;102114.47;4995015;28;20202;-70
2022/12/19 00:19:54;;;;;;;20.17;9.13;;;;;;;-2.46;79.08;102116.00;4996281;28;20465;-70
2022/12/19 00:22:22;;;;;;;32.72;13.25;;;;;;;-2.52;79.33;102114.16;4990189;28;20088;-70
2022/12/19 00:24:49;;;;;;;20.55;10.07;;;;;;;-2.14;78.27;102117.56;4986860;28;20076;-70
2022/12/19 00:27:15;;;;;;;20.38;8.70;;;;;;;-2.03;77.81;102095.53;4981625;28;20532;-70
2022/12/19 00:29:41;;;;;;;20.65;8.48;;;;;;;-2.06;77.75;102108.34;4999463;28;20056;-70
2022/12/19 00:32:08;;;;;;;15.63;7.32;;;;;;;-2.06;77.28;102094.59;4987517;28;20042;-70
2022/12/19 00:34:34;;;;;;;23.60;9.85;;;;;;;-2.19;78.68;102090.06;4975656;28;20046;-70
2022/12/19 00:37:01;;;;;;;16.00;7.72;;;;;;;-2.10;78.13;102093.69;4987084;28;20050;-70
2022/12/19 00:39:28;;;;;;;18.40;8.98;;;;;;;-1.76;76.52;102095.25;5002661;28;20045;-70
2022/12/19 00:41:55;;;;;;;10.73;4.65;;;;;;;-2.00;77.28;102084.47;4979480;28;20061;-70
2022/12/19 00:44:21;;;;;;;17.75;8.88;;;;;;;-1.89;77.55;102089.84;5006615;28;20425;-70
2022/12/19 00:46:48;;;;;;;15.48;6.07;;;;;;;-2.11;77.73;102070.53;4981070;28;20057;-70
2022/12/19 00:49:15;;;;;;;17.02;7.75;;;;;;;-1.91;76.68;102068.34;4961668;28;20050;-70
2022/12/19 00:51:41;;;;;;;15.68;7.57;;;;;;;-1.93;77.01;102072.63;4970765;28;20085;-70
2022/12/19 00:54:09;;;;;;;23.45;10.23;;;;;;;-1.90;76.88;102075.25;4971382;28;20073;-70
2022/12/19 00:56:37;;;;;;;18.20;8.45;;;;;;;-2.22;77.61;102072.88;4981058;28;20069;-70
2022/12/19 00:59:03;;;;;;;20.45;8.45;;;;;;;-1.99;76.73;102076.78;4989642;28;20057;-70
2022/12/19 01:01:33;;;;;;;18.60;8.32;;;;;;;-1.79;76.75;102072.06;4986174;28;20129;-70
2022/12/19 01:04:00;;;;;;;19.90;8.73;;;;;;;-1.61;75.07;102074.09;4989638;28;20442;-70
2022/12/19 01:06:27;;;;;;;17.73;7.63;;;;;;;-2.04;76.75;102068.13;4994122;28;20410;-70
2022/12/19 01:08:54;;;;;;;21.15;8.80;;;;;;;-1.68;76.69;102079.97;4990065;28;20088;-70
2022/12/19 01:12:44;;;;;;;17.98;6.60;;;;;;;-1.87;76.94;102083.00;4990910;28;20041;-70
2022/12/19 01:14:08;;;;;;;14.95;7.15;;;;;;;-1.99;77.23;102081.91;4991434;28;20042;-70
2022/12/19 01:16:35;;;;;;;17.20;6.95;;;;;;;-1.76;76.65;102077.25;4983766;28;20104;-70
2022/12/19 01:19:01;;;;;;;15.10;6.72;;;;;;;-2.04;77.37;102068.13;4993477;28;20164;-70
2022/12/19 01:21:28;;;;;;;18.85;9.05;;;;;;;-2.21;77.94;102059.19;4994335;28;20065;-70
2022/12/19 01:23:54;;;;;;;16.45;8.15;;;;;;;-1.98;77.60;102050.25;4993776;28;20049;-70
2022/12/19 01:26:21;;;;;;;18.65;8.02;;;;;;;-1.95;77.33;102062.28;5010252;28;20057;-70
2022/12/19 01:28:47;;;;;;;17.60;8.35;;;;;;;-1.54;77.45;102051.09;4997617;28;20042;-70
2022/12/19 01:31:15;;;;;;;23.17;9.50;;;;;;;-0.87;73.44;102052.25;4984100;28;20053;-70
2022/12/19 01:33:41;;;;;;;16.83;7.32;;;;;;;-0.66;72.73;102043.97;4993524;28;20391;-70
2022/12/19 01:36:08;;;;;;;15.85;7.68;;;;;;;-1.13;73.75;102040.66;5000918;28;20041;-70
2022/12/19 01:38:36;;;;;;;16.60;7.72;;;;;;;-1.63;75.03;102029.50;4991683;28;20056;-70
2022/12/19 01:41:03;;;;;;;17.48;7.60;;;;;;;-1.62;75.79;102024.38;5004854;28;20468;-70
2022/12/19 01:43:32;;;;;;;12.75;6.22;;;;;;;-1.38;75.60;102018.81;5003059;28;20048;-70
2022/12/19 01:46:02;;;;;;;17.73;6.72;;;;;;;-1.80;75.51;102028.31;5010814;28;20499;-70
2022/12/19 01:48:33;;;;;;;12.43;6.57;;;;;;;-1.84;76.57;102013.66;5022358;28;20501;-70
2022/12/19 01:51:02;;;;;;;15.77;9.07;;;;;;;-1.56;76.52;102003.94;5012451;28;20409;-70
2022/12/19 01:53:33;;;;;;;17.98;7.60;;;;;;;-1.22;74.73;102001.94;5013037;28;20049;-70
2022/12/19 01:56:01;;;;;;;12.70;5.55;;;;;;;-1.16;73.14;102008.03;5026869;28;20072;-70
2022/12/19 01:58:28;;;;;;;19.00;6.03;;;;;;;-1.14;73.64;101985.75;5018971;28;20041;-70
2022/12/19 02:00:54;;;;;;;19.40;8.75;;;;;;;-1.40;74.01;101989.59;5016329;28;20460;-70
2022/12/19 02:03:26;;;;;;;11.77;5.00;;;;;;;-1.06;72.46;101988.44;5021695;28;20509;-70
2022/12/19 02:05:55;;;;;;;12.98;6.78;;;;;;;-0.69;71.73;101987.28;4988584;28;20053;-70
2022/12/19 02:08:24;;;;;;;14.95;6.55;;;;;;;-1.02;73.25;101985.94;4996920;28;20575;-70
2022/12/19 02:10:50;;;;;;;15.77;6.85;;;;;;;-1.00;73.11;101983.41;5002946;28;20053;-68
2022/12/19 02:13:18;;;;;;;17.48;7.85;;;;;;;-1.31;73.67;101989.78;4992807;28;20053;-68
2022/12/19 02:15:52;;;;;;;15.85;6.80;;;;;;;-1.26;73.78;101983.00;4996153;28;20041;-68
2022/12/19 02:18:31;;;;;;;16.45;7.50;;;;;;;-1.02;73.13;101979.94;4981804;28;20048;-68
2022/12/19 02:21:21;;;;;;;13.43;4.50;;;;;;;-1.06;72.34;101973.88;5009779;28;20072;-68
2022/12/19 02:24:09;;;;;;;14.00;7.28;;;;;;;-1.12;72.60;101967.78;5000145;28;20454;-68
2022/12/19 02:27:12;;;;;;;13.73;6.13;;;;;;;-1.13;73.30;101961.75;5019551;28;20604;-68
2022/12/19 02:30:07;;;;;;;14.63;6.63;;;;;;;-1.36;74.16;101962.22;5017979;28;20429;-68
2022/12/19 02:32:45;;;;;;;13.38;6.63;;;;;;;-1.48;73.41;101965.47;5003654;28;20405;-69
2022/12/19 02:35:19;;;;;;;19.52;8.25;;;;;;;-1.27;73.17;101962.38;4993147;28;20065;-70
2022/12/19 02:37:49;;;;;;;13.50;6.25;;;;;;;-0.90;72.16;101961.22;5002978;28;20049;-70
2022/12/19 02:40:20;;;;;;;14.77;7.10;;;;;;;-1.00;72.49;101958.50;5012874;28;20053;-70
2022/12/19 02:42:51;;;;;;;15.23;6.88;;;;;;;-1.12;72.69;101950.63;4992206;28;20572;-70
2022/12/19 02:45:20;;;;;;;12.77;6.27;;;;;;;-1.09;72.23;101950.66;4991512;28;20387;-70
2022/12/19 02:47:48;;;;;;;18.70;9.35;;;;;;;-1.20;72.77;101944.50;4981823;28;20046;-70
2022/12/19 02:50:15;;;;;;;13.15;6.13;;;;;;;-1.29;73.32;101952.03;4991958;28;20049;-70
2022/12/19 02:52:47;;;;;;;11.05;6.30;;;;;;;-1.27;74.32;101960.66;4991745;28;20054;-70
2022/12/19 02:55:18;;;;;;;15.43;6.53;;;;;;;-1.16;73.77;101956.56;4982508;28;20046;-70
2022/12/19 02:58:17;;;;;;;12.68;5.50;;;;;;;-0.94;72.51;101959.44;4991805;28;20053;-70
2022/12/19 03:00:54;;;;;;;14.98;6.95;;;;;;;-1.03;72.73;101955.88;5002655;28;20053;-70
2022/12/19 03:03:29;;;;;;;9.27;3.47;;;;;;;-1.06;73.17;101947.25;5009198;28;20042;-70
2022/12/19 03:06:04;;;;;;;14.88;5.93;;;;;;;-0.93;73.18;101940.59;4994057;28;20045;-70
2022/12/19 03:08:37;;;;;;;18.95;9.43;;;;;;;-0.89;72.91;101940.66;5009026;28;20041;-70
2022/12/19 03:11:07;;;;;;;15.07;7.22;;;;;;;-1.17;73.74;101941.09;4998526;28;20104;-70
2022/12/19 03:13:38;;;;;;;12.93;6.68;;;;;;;-0.78;72.98;101938.22;5008461;28;20406;-70
2022/12/19 03:16:08;;;;;;;10.95;5.32;;;;;;;-1.05;72.96;101947.28;4983232;28;20050;-70
2022/12/19 03:18:36;;;;;;;13.00;6.30;;;;;;;-0.99;73.07;101937.06;5005651;28;20041;-70
2022/12/19 03:21:11;;;;;;;13.77;5.68;;;;;;;-0.75;73.34;101943.41;4991060;28;20068;-70
2022/12/19 03:23:38;;;;;;;13.07;5.55;;;;;;;-0.85;73.46;101928.69;4981826;28;20046;-70
2022/12/19 03:26:09;;;;;;;14.05;6.78;;;;;;;-0.62;72.64;101928.13;4991368;28;20046;-70
2022/12/19 03:28:41;;;;;;;11.73;5.40;;;;;;;-1.08;73.77;101925.78;4991902;28;20046;-70
2022/12/19 03:31:09;;;;;;;15.32;7.05;;;;;;;-1.07;74.58;101920.66;4990197;28;20046;-70
2022/12/19 03:33:40;;;;;;;11.45;6.43;;;;;;;-1.02;74.85;101918.16;4983876;28;20085;-70
2022/12/19 03:36:11;;;;;;;15.48;6.10;;;;;;;-0.57;73.34;101917.91;4980946;28;20465;-70
2022/12/19 03:38:40;;;;;;;17.27;7.38;;;;;;;-0.32;72.20;101925.06;4990251;28;20053;-70
2022/12/19 03:41:10;;;;;;;9.55;4.60;;;;;;;-0.85;73.25;101926.13;4998259;28;20069;-70
2022/12/19 03:43:37;;;;;;;13.35;5.22;;;;;;;-1.02;73.97;101921.59;4988425;28;20045;-70
2022/12/19 03:46:12;;;;;;;11.48;4.70;;;;;;;-0.87;73.28;101927.78;4989935;28;20053;-70
2022/12/19 03:48:43;;;;;;;15.43;6.80;;;;;;;-0.55;72.36;101921.34;4993415;28;20111;-70
2022/12/19 03:51:29;;;;;;;10.15;4.82;;;;;;;-1.04;73.90;101919.84;5001890;28;20045;-70
2022/12/19 03:54:00;;;;;;;11.90;6.20;;;;;;;-0.84;73.64;101923.53;5011967;28;20048;-70
2022/12/19 03:56:35;;;;;;;8.68;4.90;;;;;;;-0.98;73.45;101930.22;5004008;28;20426;-70
2022/12/19 03:59:07;;;;;;;14.90;6.72;;;;;;;-0.88;74.07;101915.75;5024754;28;20060;-70
2022/12/19 04:01:35;;;;;;;10.90;5.13;;;;;;;-0.53;73.77;101907.66;5010216;28;20053;-70
2022/12/19 04:04:04;;;;;;;11.65;6.03;;;;;;;-0.49;72.57;101913.72;5009846;28;20045;-70
2022/12/19 04:06:34;;;;;;;19.02;8.07;;;;;;;-0.88;73.50;101911.47;4976769;28;20038;-70
2022/12/19 04:09:02;;;;;;;15.07;7.72;;;;;;;-1.02;74.12;101903.56;4998969;28;20555;-70
2022/12/19 04:11:34;;;;;;;18.05;7.75;;;;;;;-0.68;72.84;101898.88;4996392;28;20103;-70
2022/12/19 04:14:05;;;;;;;11.30;5.68;;;;;;;-0.92;73.13;101914.00;5002992;28;20513;-70
2022/12/19 04:16:38;;;;;;;13.65;6.93;;;;;;;-0.84;72.90;101896.94;4995658;28;20056;-70
2022/12/19 04:19:11;;;;;;;15.75;7.97;;;;;;;-0.75;72.49;101877.34;4992954;28;20049;-70
2022/12/19 04:21:43;;;;;;;16.60;6.97;;;;;;;-0.43;72.57;101887.13;5002910;28;20050;-70
2022/12/19 04:24:14;;;;;;;12.15;6.82;;;;;;;-0.52;72.16;101882.75;4973561;28;20061;-70
2022/12/19 04:26:46;;;;;;;14.73;7.70;;;;;;;-0.32;71.37;101883.84;4960371;28;20426;-70
2022/12/19 04:29:14;;;;;;;19.15;7.88;;;;;;;-0.58;72.03;101896.41;4969807;28;20538;-70
2022/12/19 04:31:41;;;;;;;14.05;6.88;;;;;;;-0.37;72.02;101892.38;4973171;28;20057;-70
2022/12/19 04:34:09;;;;;;;12.85;6.53;;;;;;;-0.78;72.93;101904.75;4984687;28;20458;-70
2022/12/19 04:36:36;;;;;;;16.15;6.25;;;;;;;-0.86;73.72;101903.78;4968666;28;20482;-70
2022/12/19 04:39:03;;;;;;;10.88;5.20;;;;;;;-0.84;73.50;101908.09;4961091;28;20050;-70
2022/12/19 04:41:30;;;;;;;10.40;5.13;;;;;;;-0.66;73.09;101910.03;4999979;28;20061;-70
2022/12/19 04:43:56;;;;;;;9.52;4.43;;;;;;;-0.44;73.32;101904.31;4969626;28;20050;-70
2022/12/19 04:46:23;;;;;;;14.60;6.32;;;;;;;-0.60;73.17;101902.41;4991008;28;20056;-70
2022/12/19 04:48:49;;;;;;;15.35;6.55;;;;;;;-0.73;73.68;101893.66;4970063;28;20058;-70
2022/12/19 04:51:17;;;;;;;13.30;5.80;;;;;;;-0.88;75.09;101879.72;4968580;28;20506;-70
2022/12/19 04:53:43;;;;;;;11.55;6.22;;;;;;;-0.84;74.73;101868.59;4961325;28;20525;-70
2022/12/19 04:56:10;;;;;;;12.95;6.75;;;;;;;-0.75;74.64;101866.16;4967570;28;20050;-70
2022/12/19 04:58:37;;;;;;;8.77;5.20;;;;;;;-0.45;74.79;101863.06;4967242;28;20057;-70
2022/12/19 05:01:05;;;;;;;13.18;5.97;;;;;;;-0.55;74.51;101854.38;4990608;28;20057;-70
2022/12/19 05:03:32;;;;;;;13.38;6.55;;;;;;;-0.66;75.35;101848.22;4970031;28;20522;-70
2022/12/19 05:06:06;;;;;;;12.48;6.35;;;;;;;-0.53;75.07;101860.41;4969829;28;20066;-70
2022/12/19 05:08:35;;;;;;;11.90;6.00;;;;;;;-0.71;75.64;101850.78;4960199;28;20046;-70
2022/12/19 05:11:02;;;;;;;14.02;6.53;;;;;;;-0.39;75.27;101850.25;4969537;28;20061;-70
2022/12/19 05:13:29;;;;;;;8.30;5.10;;;;;;;-0.29;75.07;101850.34;4970130;28;20422;-70
2022/12/19 05:15:57;;;;;;;14.85;7.38;;;;;;;-0.46;75.55;101854.47;4959375;28;20073;-70
2022/12/19 05:18:23;;;;;;;9.15;5.68;;;;;;;-0.49;75.91;101854.47;4969593;28;20053;-70
2022/12/19 05:20:50;;;;;;;12.13;5.35;;;;;;;-0.53;75.97;101842.38;4970011;28;20498;-70
2022/12/19 05:23:16;;;;;;;13.15;6.60;;;;;;;-0.53;76.76;101857.84;4960416;28;20057;-69
2022/12/19 05:25:44;;;;;;;16.27;6.32;;;;;;;-0.21;76.09;101851.31;4995026;28;20054;-69
2022/12/19 05:28:11;;;;;;;12.23;5.03;;;;;;;-0.31;75.77;101844.34;4997684;28;20060;-70
2022/12/19 05:30:37;;;;;;;13.98;7.07;;;;;;;-0.14;75.79;101836.75;4961155;28;20077;-70
2022/12/19 05:33:04;;;;;;;14.18;6.55;;;;;;;-0.07;75.52;101828.22;4968136;28;20069;-70
2022/12/19 05:35:30;;;;;;;7.85;4.20;;;;;;;-0.43;76.66;101825.31;4969193;28;20490;-70
2022/12/19 05:37:57;;;;;;;12.85;6.07;;;;;;;-0.28;76.19;101838.34;4975371;28;20231;-70
2022/12/19 05:40:23;;;;;;;20.63;7.20;;;;;;;-0.30;77.22;101825.47;4981341;28;20992;-70
2022/12/19 05:42:51;;;;;;;19.65;7.22;;;;;;;-0.26;76.68;101822.03;4969169;28;20132;-70
2022/12/19 05:45:18;;;;;;;11.75;5.82;;;;;;;-0.39;77.43;101814.19;4961483;28;20050;-69
2022/12/19 05:47:45;;;;;;;15.60;6.95;;;;;;;-0.26;76.96;101814.31;4997700;28;20077;-69
2022/12/19 05:50:12;;;;;;;14.63;7.90;;;;;;;-0.21;76.53;101809.19;4982457;28;20057;-69
2022/12/19 05:52:38;;;;;;;10.73;5.75;;;;;;;-0.07;76.35;101800.72;4977054;28;20041;-69
2022/12/19 05:55:06;;;;;;;11.73;5.70;;;;;;;-0.13;76.38;101804.97;4977030;28;20041;-69
2022/12/19 05:57:33;;;;;;;14.32;6.72;;;;;;;-0.07;76.56;101823.94;5004572;28;20049;-69
2022/12/19 06:00:01;;;;;;;12.18;6.18;;;;;;;-0.01;76.25;101808.53;4977198;28;20162;-70
2022/12/19 06:02:32;;;;;;;11.77;5.88;;;;;;;-0.22;77.09;101813.47;4977914;28;20064;-70
2022/12/19 06:04:58;;;;;;;17.55;8.15;;;;;;;-0.28;76.98;101802.25;5005665;28;20045;-70
2022/12/19 06:07:25;;;;;;;17.83;8.48;;;;;;;-0.05;76.50;101805.91;4978964;28;20050;-70
2022/12/19 06:09:51;;;;;;;13.30;6.65;;;;;;;-0.21;76.60;101814.34;5000113;28;20131;-70
2022/12/19 06:12:18;;;;;;;14.43;4.88;;;;;;;0.11;76.82;101812.06;4998093;28;20103;-70
2022/12/19 06:14:44;;;;;;;12.73;5.20;;;;;;;0.25;75.82;101828.50;4964379;28;20656;-69
2022/12/19 06:17:12;;;;;;;9.57;5.50;;;;;;;0.17;76.24;101812.97;4996435;28;20082;-70
2022/12/19 06:19:38;;;;;;;13.88;6.60;;;;;;;-0.21;76.84;101804.03;4970282;28;20423;-70
2022/12/19 06:22:05;;;;;;;10.60;5.10;;;;;;;0.08;77.11;101806.88;4966802;28;20054;-69
2022/12/19 06:24:31;;;;;;;12.98;5.40;;;;;;;0.03;76.60;101804.28;4996091;28;20053;-69
2022/12/19 06:26:58;;;;;;;12.38;6.45;;;;;;;-0.09;77.06;101804.16;4995012;28;20045;-69
2022/12/19 06:29:24;;;;;;;12.25;5.43;;;;;;;0.30;76.09;101806.19;4983445;28;20049;-69
2022/12/19 06:31:50;;;;;;;13.85;6.43;;;;;;;0.23;76.34;101787.22;4991088;28;20053;-69
2022/12/19 06:34:18;;;;;;;12.85;6.03;;;;;;;0.44;75.90;101783.94;5009082;28;20072;-69
2022/12/19 06:36:45;;;;;;;8.82;4.80;;;;;;;0.15;76.45;101780.31;4994693;28;20068;-69
2022/12/19 06:39:14;;;;;;;13.00;6.85;;;;;;;0.16;76.49;101777.72;4998033;28;20053;-69
2022/12/19 06:44:24;;;;;;;12.52;5.97;;;;;;;0.12;77.17;101798.31;4972858;28;20525;-69
2022/12/19 06:46:52;;;;;;;14.23;7.35;;;;;;;0.13;78.24;101776.81;5000143;28;20438;-69
2022/12/19 06:49:20;;;;;;;13.32;5.65;;;;;;;0.28;78.49;101779.53;4965977;28;20073;-69
2022/12/19 06:51:46;;;;;;;11.30;5.60;;;;;;;0.34;77.16;101789.88;5011746;28;20057;-70
2022/12/19 06:54:14;;;;;;;12.45;6.28;;;;;;;0.45;77.12;101798.53;5000082;28;20053;-71
2022/12/19 06:56:42;;;;;;;12.15;6.32;;;;;;;0.25;78.28;101808.75;4978187;28;20045;-70
2022/12/19 06:59:12;;;;;;;12.90;6.07;;;;;;;0.24;78.62;101800.97;4998628;28;20619;-70
2022/12/19 07:01:51;;;;;;;14.13;5.82;;;;;;;0.45;78.49;101796.81;4990549;28;21159;-70
2022/12/19 07:04:23;;;;;;;15.35;6.93;;;;;;;0.60;78.66;101792.59;4987009;28;20424;-70
2022/12/19 07:06:50;;;;;;;10.75;5.25;;;;;;;0.63;78.66;101797.81;4987475;28;20058;-70
2022/12/19 07:09:17;;;;;;;12.70;7.00;;;;;;;0.47;79.69;101791.69;4977297;28;20052;-70
2022/12/19 07:11:44;;;;;;;13.50;6.15;;;;;;;0.50;80.70;101794.28;4998910;28;20073;-70
2022/12/19 07:14:10;;;;;;;14.93;6.60;;;;;;;0.47;80.83;101783.94;4990988;28;20053;-70
2022/12/19 07:16:37;;;;;;;13.48;5.35;;;;;;;0.64;80.61;101777.16;4992471;28;20060;-70
2022/12/19 07:19:04;;;;;;;13.57;6.63;;;;;;;0.41;82.39;101779.59;4996204;28;20580;-69
2022/12/19 07:21:32;;;;;;;13.80;6.70;;;;;;;0.40;82.76;101777.03;5010874;28;20041;-69
2022/12/19 07:23:59;;;;;;;12.05;7.03;;;;;;;0.31;82.67;101782.13;4977723;28;20041;-68
2022/12/19 07:26:26;;;;;;;16.73;6.93;;;;;;;0.53;82.28;101777.94;5008048;28;20452;-68
2022/12/19 07:28:53;;;;;;;13.85;6.05;;;;;;;0.44;82.59;101784.78;4996127;28;20050;-68
2022/12/19 07:31:19;;;;;;;10.15;4.53;;;;;;;0.27;83.25;101777.78;5002066;28;20057;-68
2022/12/19 07:33:46;;;;;;;12.32;6.10;;;;;;;0.27;83.25;101780.38;5008591;28;20041;-68
2022/12/19 07:36:12;;;;;;;16.67;7.25;;;;;;;0.46;83.72;101775.34;4993793;28;20046;-68
2022/12/19 07:38:40;;;;;;;14.30;6.55;;;;;;;0.40;83.26;101784.78;4967976;28;20050;-68
2022/12/19 07:41:06;;;;;;;15.55;6.90;;;;;;;0.38;84.21;101776.13;4990752;28;20045;-68
2022/12/19 07:43:33;;;;;;;14.38;6.65;;;;;;;0.55;83.63;101784.00;5014195;28;20048;-68
2022/12/19 07:45:59;;;;;;;16.00;6.85;;;;;;;0.33;84.71;101785.59;4984279;28;20050;-68
2022/12/19 07:48:27;;;;;;;11.25;5.45;;;;;;;0.28;85.22;101785.53;4993448;28;20046;-68
2022/12/19 07:50:54;;;;;;;13.18;6.28;;;;;;;0.28;86.59;101779.53;4996203;28;20049;-68
2022/12/19 07:53:20;;;;;;;14.75;7.38;;;;;;;0.22;85.56;101782.91;4980422;28;20045;-68
2022/12/19 07:55:51;;;;;;;16.70;7.78;;;;;;;0.25;86.37;101784.66;5001155;28;20049;-69
2022/12/19 07:58:18;;;;;;;18.35;7.05;;;;;;;0.24;86.40;101788.09;4993824;28;20045;-68
2022/12/19 08:00:44;;;;;;;12.25;6.72;;;;;;;0.41;86.91;101781.31;4994864;28;20048;-68
2022/12/19 08:03:11;;;;;;;14.07;7.78;;;;;;;0.51;86.83;101782.25;5016468;28;20497;-68
2022/12/19 08:05:37;;;;;;;18.17;8.25;;;;;;;0.37;87.15;101788.16;5023376;28;20045;-69
2022/12/19 08:08:04;;;;;;;20.05;7.15;;;;;;;0.76;86.81;101778.94;4993903;28;20054;-70
2022/12/19 08:10:30;;;;;;;14.95;8.27;;;;;;;0.38;87.74;101781.31;4993307;28;20052;-70
2022/12/19 08:12:58;;;;;;;10.48;5.68;;;;;;;0.63;88.47;101772.84;5009543;28;20053;-70
2022/12/19 08:15:24;;;;;;;17.73;7.40;;;;;;;0.74;88.20;101772.91;4999883;28;20067;-70
2022/12/19 08:17:51;;;;;;;21.42;7.90;;;;;;;0.88;89.29;101769.53;5012817;28;20117;-71
2022/12/19 08:20:18;;;;;;;16.80;8.45;;;;;;;0.95;88.14;101773.00;5020553;28;20060;-71
2022/12/19 08:22:44;;;;;;;19.27;9.38;;;;;;;0.88;87.85;101785.03;4999880;28;20049;-71
2022/12/19 08:25:12;;;;;;;22.05;10.02;;;;;;;0.75;88.96;101779.78;5023616;28;20045;-71
2022/12/19 08:27:38;;;;;;;16.83;7.70;;;;;;;0.76;89.49;101772.06;5014506;28;20136;-71
2022/12/19 08:30:07;;;;;;;19.95;9.02;;;;;;;0.64;89.56;101772.00;5007810;28;20448;-71
2022/12/19 08:32:34;;;;;;;16.20;8.18;;;;;;;0.72;90.46;101762.56;4999999;28;20049;-71
2022/12/19 08:35:00;;;;;;;22.38;9.52;;;;;;;0.80;89.82;101744.53;5002146;28;20064;-71
2022/12/19 08:37:27;;;;;;;18.48;7.95;;;;;;;0.73;91.70;101753.13;4981324;28;20046;-71
2022/12/19 08:39:53;;;;;;;19.38;9.60;;;;;;;1.00;90.05;101757.53;4990090;28;20046;-71
2022/12/19 08:42:20;;;;;;;44.35;8.80;;;;;;;1.23;89.66;101754.16;4989802;28;20053;-71
2022/12/19 08:44:46;;;;;;;21.90;10.32;;;;;;;1.26;89.30;101761.03;4995276;28;20135;-71
2022/12/19 08:47:14;;;;;;;15.00;7.57;;;;;;;1.11;90.05;101753.28;5007805;28;20072;-71
2022/12/19 08:49:41;;;;;;;16.70;8.63;;;;;;;0.93;91.46;101747.16;5021920;28;20500;-71
2022/12/19 08:52:07;;;;;;;18.30;7.35;;;;;;;1.08;91.17;101741.19;5015941;28;20489;-71
2022/12/19 08:54:34;;;;;;;17.65;7.80;;;;;;;0.84;93.04;101734.25;5024530;28;20049;-71
2022/12/19 08:57:00;;;;;;;19.88;9.45;;;;;;;0.79;93.08;101740.22;5007893;28;20582;-71
2022/12/19 08:59:30;;;;;;;23.48;8.27;;;;;;;0.82;94.29;101740.22;4963551;28;20052;-72
2022/12/19 09:01:56;;;;;;;26.55;10.75;;;;;;;0.92;94.69;101734.28;4972091;28;20057;-73
2022/12/19 09:04:24;;;;;;;21.42;10.30;;;;;;;1.19;93.43;101725.72;4990577;28;20042;-73
2022/12/19 09:06:50;;;;;;;17.92;7.90;;;;;;;1.22;93.72;101718.00;4979959;28;20391;-73
2022/12/19 09:09:17;;;;;;;18.25;8.25;;;;;;;1.08;94.16;101724.81;5000201;28;20448;-73
2022/12/19 09:11:43;;;;;;;20.45;11.75;;;;;;;0.96;94.59;101711.03;4993958;28;20505;-73
2022/12/19 09:14:10;;;;;;;20.40;8.50;;;;;;;0.87;95.40;101711.00;4980498;28;20041;-73
2022/12/19 09:16:36;;;;;;;19.55;9.25;;;;;;;0.72;96.28;101704.91;4989983;28;20058;-73
2022/12/19 09:19:03;;;;;;;20.98;10.30;;;;;;;1.06;96.75;101713.66;4989386;28;20046;-74
2022/12/19 09:21:30;;;;;;;22.33;9.82;;;;;;;0.97;96.34;101702.44;4987946;28;20429;-74
2022/12/19 09:23:59;;;;;;;17.48;8.57;;;;;;;0.81;97.15;101700.63;5002673;28;20064;-74
2022/12/19 09:26:26;;;;;;;20.92;11.60;;;;;;;0.90;97.09;101692.06;5006357;28;20038;-74
2022/12/19 09:28:53;;;;;;;15.50;8.25;;;;;;;1.00;97.63;101696.41;4981158;28;20398;-74
2022/12/19 09:31:22;;;;;;;23.60;9.85;;;;;;;1.05;96.64;101696.41;5001486;28;20540;-76
2022/12/19 09:33:49;;;;;;;18.48;8.60;;;;;;;0.96;97.33;101725.69;5000280;28;20053;-75
2022/12/19 09:36:17;;;;;;;26.42;13.88;;;;;;;0.80;98.85;101709.25;4986397;28;20038;-75
2022/12/19 09:38:46;;;;;;;27.13;12.02;;;;;;;0.85;99.13;101688.63;4996682;28;20096;-75
2022/12/19 09:41:40;;;;;;;18.35;7.78;;;;;;;0.80;98.44;101683.44;4994895;28;20141;-77
2022/12/19 09:44:20;;;;;;;18.20;9.02;;;;;;;1.03;99.72;101682.66;4981648;28;20076;-76
2022/12/19 09:46:49;;;;;;;22.77;10.70;;;;;;;0.91;99.66;101680.91;4992488;28;20080;-76
2022/12/19 09:49:19;;;;;;;21.45;9.93;;;;;;;0.79;100.00;101676.56;5002677;28;20045;-77
2022/12/19 09:51:53;;;;;;;22.80;11.55;;;;;;;0.83;100.00;101667.97;5004518;28;20042;-78
2022/12/19 09:54:27;;;;;;;25.30;9.63;;;;;;;0.83;100.00;101678.28;5002814;28;20041;-79
2022/12/19 09:56:59;;;;;;;22.55;11.40;;;;;;;0.84;100.00;101667.13;5017384;28;20049;-80
2022/12/19 09:59:31;;;;;;;24.20;11.60;;;;;;;0.73;100.00;101662.78;5018797;28;20044;-80
2022/12/19 10:02:03;;;;;;;21.33;10.37;;;;;;;0.64;100.00;101673.91;5001668;28;20058;-80
2022/12/19 10:04:33;;;;;;;;;;;;;;;0.79;100.00;101671.38;5004452;28;20046;-81
2022/12/19 10:06:59;;;;;;;23.75;12.48;;;;;;;0.84;100.00;101661.94;4985358;28;20673;-81
2022/12/19 10:09:32;;;;;;;20.58;9.60;;;;;;;0.83;100.00;101656.78;4998753;28;20048;-81
2022/12/19 10:12:27;;;;;;;19.13;10.27;;;;;;;0.97;100.00;101652.50;4995193;28;20088;-81
2022/12/19 10:15:03;;;;;;;20.52;9.73;;;;;;;1.05;100.00;101648.22;5001562;28;20037;-81
2022/12/19 10:17:41;;;;;;;21.13;10.25;;;;;;;0.95;100.00;101647.34;5003132;28;20057;-81
2022/12/19 10:20:25;;;;;;;26.45;12.65;;;;;;;0.84;100.00;101635.25;5003726;28;20115;-81
2022/12/19 10:23:03;;;;;;;26.33;12.80;;;;;;;0.86;100.00;101636.97;4993442;28;20104;-81
2022/12/19 10:25:42;;;;;;;28.65;12.20;;;;;;;0.97;100.00;101621.50;5003116;28;20037;-81
2022/12/19 10:28:25;;;;;;;28.08;12.90;;;;;;;0.91;100.00;101635.28;4982650;28;20042;-81
2022/12/19 10:31:03;;;;;;;27.90;12.18;;;;;;;1.03;100.00;101625.84;4984602;28;20042;-81
2022/12/19 10:33:38;;;;;;;26.60;11.85;;;;;;;0.90;100.00;101630.97;4975030;28;20052;-81
2022/12/19 10:36:10;;;;;;;21.40;11.80;;;;;;;0.92;100.00;101615.50;4979310;28;20061;-81
2022/12/19 10:38:43;;;;;;;31.25;14.50;;;;;;;0.95;100.00;101626.69;4993478;28;20046;-81
2022/12/19 10:41:21;;;;;;;22.60;10.18;;;;;;;1.05;100.00;101626.69;4993607;28;20092;-81
2022/12/19 10:43:57;;;;;;;24.52;13.10;;;;;;;0.93;100.00;101618.06;4992568;28;20046;-78
2022/12/19 10:46:35;;;;;;;23.75;12.60;;;;;;;0.84;100.00;101615.47;5010030;28;20038;-78
2022/12/19 10:49:10;;;;;;;29.23;12.10;;;;;;;0.84;100.00;101604.28;4985815;28;20056;-78
2022/12/19 10:51:36;;;;;;;31.75;13.98;;;;;;;1.03;100.00;101605.19;4988918;28;20042;-78
2022/12/19 10:54:03;;;;;;;21.08;9.90;;;;;;;1.07;100.00;101604.31;5000647;28;20425;-78
2022/12/19 10:56:32;;;;;;;26.77;12.93;;;;;;;1.16;100.00;101600.00;4987082;28;20050;-78
2022/12/19 10:59:00;;;;;;;26.48;15.43;;;;;;;1.13;100.00;101591.41;4985529;28;20144;-79
2022/12/19 11:01:28;;;;;;;26.48;11.57;;;;;;;1.17;100.00;101587.97;4984124;28;20092;-78
2022/12/19 11:04:13;;;;;;;28.70;13.38;;;;;;;0.92;100.00;101587.94;5004917;28;20049;-78
2022/12/19 11:06:49;;;;;;;27.00;11.25;;;;;;;1.03;100.00;101587.09;4992305;28;20049;-78
2022/12/19 11:09:21;;;;;;;20.88;10.57;;;;;;;1.06;100.00;101576.75;5011846;28;20049;-78
2022/12/19 11:11:57;;;;;;;23.05;12.65;;;;;;;1.29;100.00;101564.72;5000530;28;20045;-78
2022/12/19 11:14:25;;;;;;;26.70;9.82;;;;;;;1.30;100.00;101571.59;5009065;28;20056;-78
2022/12/19 11:16:52;;;;;;;23.83;12.10;;;;;;;1.15;100.00;101554.38;5018893;28;20115;-79
2022/12/19 11:19:27;;;;;;;28.40;12.88;;;;;;;1.31;100.00;101550.06;4993535;28;20072;-78
2022/12/19 11:21:57;;;;;;;30.60;13.80;;;;;;;1.09;100.00;101561.25;5007978;28;20425;-78
2022/12/19 11:24:28;;;;;;;24.85;10.93;;;;;;;1.32;100.00;101568.16;4991612;28;20077;-78
2022/12/19 11:26:56;;;;;;;26.58;13.82;;;;;;;1.38;100.00;101549.19;4992020;28;20053;-78
2022/12/19 11:29:25;;;;;;;28.27;11.35;;;;;;;1.24;100.00;101554.38;4991399;28;20568;-78
2022/12/19 11:31:56;;;;;;;28.33;13.20;;;;;;;1.28;100.00;101553.50;4980919;28;20506;-78